Time;durP1;ratioP1;P1;durP2;ratioP2;P2;SDS_P1;SDS_P2;PMS_P1;PMS_P2;Temp;Humidity;BMP_temperature;BMP_pressure;BME280_temperature;BME280_humidity;BME280_pressure;Samples;Min_cycle;Max_cycle;Signal;HPM_P1;HPM_P2
2022/04/18 00:02:06;;;;;;;9.98;6.70;;;10.00;52.90;;;;;;4904455;29;20460;-46
2022/04/18 00:04:33;;;;;;;11.30;7.00;;;10.00;52.80;;;;;;4911023;29;20048;-46
2022/04/18 00:07:00;;;;;;;11.07;7.25;;;9.90;52.60;;;;;;4910586;29;20094;-46
2022/04/18 00:09:26;;;;;;;10.50;6.93;;;9.90;53.20;;;;;;4910762;29;20048;-45
2022/04/18 00:11:51;;;;;;;10.70;7.30;;;9.80;52.90;;;;;;4903175;29;20041;-48
2022/04/18 00:14:17;;;;;;;12.32;7.60;;;9.80;53.30;;;;;;4914584;29;20040;-48
2022/04/18 00:16:42;;;;;;;12.57;8.75;;;9.70;53.30;;;;;;4912893;29;20143;-46
2022/04/18 00:19:08;;;;;;;11.88;7.15;;;9.70;53.20;;;;;;4905083;29;20051;-47
2022/04/18 00:21:34;;;;;;;12.60;7.85;;;9.70;53.90;;;;;;4913976;29;20422;-47
2022/04/18 00:23:59;;;;;;;13.52;7.63;;;9.70;53.70;;;;;;4911386;29;20060;-50
2022/04/18 00:26:25;;;;;;;11.68;7.30;;;9.70;53.60;;;;;;4910018;29;20052;-46
2022/04/18 00:28:51;;;;;;;11.95;7.75;;;9.60;53.70;;;;;;4910635;29;20043;-48
2022/04/18 00:31:17;;;;;;;11.13;7.18;;;9.60;53.40;;;;;;4911354;29;20043;-46
2022/04/18 00:33:43;;;;;;;12.73;6.85;;;9.60;53.70;;;;;;4905377;29;20363;-48
2022/04/18 00:36:08;;;;;;;14.38;7.38;;;9.50;53.90;;;;;;4909900;29;20044;-49
2022/04/18 00:38:34;;;;;;;11.05;7.78;;;9.50;54.00;;;;;;4913587;29;20192;-48
2022/04/18 00:41:00;;;;;;;11.18;7.90;;;9.50;54.60;;;;;;4913077;29;20048;-48
2022/04/18 00:43:52;;;;;;;14.23;8.57;;;9.40;54.20;;;;;;4911443;29;20127;-45
2022/04/18 00:46:19;;;;;;;15.27;8.20;;;9.40;54.40;;;;;;4907693;29;20387;-47
2022/04/18 00:48:46;;;;;;;14.73;9.00;;;9.30;54.30;;;;;;4913569;29;20055;-45
2022/04/18 00:51:15;;;;;;;12.75;8.90;;;9.30;54.20;;;;;;4893715;29;20087;-45
2022/04/18 00:53:42;;;;;;;14.80;9.60;;;9.30;54.50;;;;;;4903875;29;20060;-44
2022/04/18 00:56:09;;;;;;;14.05;8.10;;;9.30;54.20;;;;;;4909728;29;20529;-44
2022/04/18 00:58:37;;;;;;;13.82;9.70;;;9.20;54.20;;;;;;4909960;29;20127;-48
2022/04/18 01:01:03;;;;;;;13.90;9.13;;;9.20;54.50;;;;;;4910177;29;20434;-47
2022/04/18 01:03:30;;;;;;;14.85;9.63;;;9.20;54.80;;;;;;4895209;29;20076;-43
2022/04/18 01:06:01;;;;;;;16.70;10.02;;;9.10;54.30;;;;;;4910482;29;20501;-48
2022/04/18 01:08:32;;;;;;;16.75;10.23;;;9.10;54.50;;;;;;4909021;29;20099;-48
2022/04/18 01:10:59;;;;;;;17.25;10.15;;;9.10;54.60;;;;;;4911553;29;20064;-46
2022/04/18 01:13:26;;;;;;;13.43;10.52;;;9.00;54.50;;;;;;4889282;29;20095;-42
2022/04/18 01:15:56;;;;;;;18.17;10.60;;;9.00;54.70;;;;;;4911995;29;20040;-47
2022/04/18 01:18:22;;;;;;;14.63;9.93;;;9.00;54.50;;;;;;4907567;29;20119;-48
2022/04/18 01:20:48;;;;;;;14.60;9.93;;;9.00;54.50;;;;;;4909700;29;20141;-49
2022/04/18 01:23:16;;;;;;;14.98;8.93;;;8.90;54.50;;;;;;4911542;29;20542;-46
2022/04/18 01:31:11;;;;;;;14.80;9.15;;;8.90;54.40;;;;;;4910873;29;20123;-47
2022/04/18 01:33:37;;;;;;;14.10;8.02;;;8.90;53.90;;;;;;4906258;29;20482;-45
2022/04/18 01:36:02;;;;;;;14.32;9.95;;;8.90;53.90;;;;;;4914022;29;20486;-48
2022/04/18 01:38:28;;;;;;;13.35;9.77;;;8.90;53.90;;;;;;4913875;29;20043;-47
2022/04/18 01:43:31;;;;;;;13.52;8.75;;;8.80;54.70;;;;;;4867134;29;20105;-78
2022/04/18 01:45:57;;;;;;;11.70;8.50;;;8.80;53.70;;;;;;4875079;29;20053;-79
2022/04/18 01:48:23;;;;;;;13.93;10.93;;;8.80;54.00;;;;;;4872405;29;20044;-79
2022/04/18 01:50:49;;;;;;;18.00;10.55;;;8.70;53.40;;;;;;4864339;29;20114;-78
2022/04/18 01:53:14;;;;;;;13.98;10.15;;;8.70;53.30;;;;;;4871526;29;20057;-78
2022/04/18 01:55:40;;;;;;;17.48;10.85;;;8.70;53.50;;;;;;4859198;29;20044;-78
2022/04/18 01:58:06;;;;;;;15.80;10.10;;;8.60;53.40;;;;;;4844304;29;20518;-78
2022/04/18 02:00:35;;;;;;;14.73;10.35;;;8.70;53.80;;;;;;4859172;29;20083;-78
2022/04/18 02:03:01;;;;;;;15.32;10.43;;;8.60;53.30;;;;;;4873865;29;20122;-78
2022/04/18 02:05:26;;;;;;;16.50;10.68;;;8.60;53.20;;;;;;4873902;29;20045;-78
2022/04/18 02:07:52;;;;;;;14.98;10.52;;;8.60;53.80;;;;;;4859011;29;20037;-78
2022/04/18 02:10:18;;;;;;;15.30;9.32;;;8.50;53.40;;;;;;4873848;29;20420;-78
2022/04/18 02:12:43;;;;;;;14.95;10.68;;;8.50;53.50;;;;;;4843351;29;20596;-78
2022/04/18 02:15:09;;;;;;;15.48;10.10;;;8.50;53.70;;;;;;4873446;29;20033;-78
2022/04/18 02:17:35;;;;;;;16.42;10.02;;;8.50;54.00;;;;;;4874454;29;20041;-78
2022/04/18 02:20:01;;;;;;;17.27;11.70;;;8.50;54.10;;;;;;4858230;29;20044;-78
2022/04/18 02:22:27;;;;;;;16.10;11.68;;;8.40;53.80;;;;;;4840758;29;20067;-78
2022/04/18 02:24:56;;;;;;;16.90;11.63;;;8.40;54.10;;;;;;4856779;29;20041;-79
2022/04/18 02:27:22;;;;;;;16.02;10.38;;;8.40;54.50;;;;;;4871080;29;20037;-78
2022/04/18 02:29:48;;;;;;;15.95;10.90;;;8.30;54.20;;;;;;4858029;29;20041;-78
2022/04/18 02:34:57;;;;;;;14.73;9.07;;;8.30;55.10;;;;;;4875104;29;20132;-78
2022/04/18 02:37:23;;;;;;;17.02;11.52;;;8.30;55.00;;;;;;4842291;29;20139;-78
2022/04/18 02:39:49;;;;;;;16.05;10.43;;;8.20;55.00;;;;;;4857706;29;20049;-79
2022/04/18 02:42:14;;;;;;;15.68;10.52;;;8.20;55.50;;;;;;4869927;29;20532;-79
2022/04/18 02:44:45;;;;;;;15.02;9.65;;;8.10;55.10;;;;;;4871179;29;20408;-78
2022/04/18 02:47:11;;;;;;;13.82;9.30;;;8.10;55.10;;;;;;4853330;29;20137;-79
2022/04/18 02:49:37;;;;;;;18.63;11.18;;;8.10;55.50;;;;;;4839721;29;20124;-78
2022/04/18 02:52:04;;;;;;;16.33;10.95;;;8.10;55.30;;;;;;4853449;29;20045;-78
2022/04/18 02:54:29;;;;;;;17.05;10.82;;;8.00;55.20;;;;;;4840250;29;20575;-79
2022/04/18 02:56:55;;;;;;;13.13;9.75;;;8.00;55.30;;;;;;4869107;29;20053;-78
2022/04/18 02:59:21;;;;;;;14.13;9.57;;;7.90;55.60;;;;;;4839082;29;20375;-78
2022/04/18 03:01:46;;;;;;;15.20;9.68;;;8.00;55.50;;;;;;4850929;29;20504;-78
2022/04/18 03:04:12;;;;;;;19.85;12.23;;;7.90;55.70;;;;;;4833520;29;20054;-78
2022/04/18 03:06:38;;;;;;;18.40;11.68;;;7.90;55.70;;;;;;4849080;29;20125;-79
2022/04/18 03:09:03;;;;;;;19.17;11.65;;;7.90;55.40;;;;;;4853291;29;20582;-79
2022/04/18 03:11:29;;;;;;;18.00;11.48;;;7.80;55.30;;;;;;4854954;29;20395;-78
2022/04/18 03:13:55;;;;;;;15.55;10.85;;;7.80;55.60;;;;;;4855523;29;20092;-79
2022/04/18 03:16:21;;;;;;;22.33;12.07;;;7.80;55.60;;;;;;4853818;29;20052;-79
2022/04/18 03:18:47;;;;;;;17.45;11.60;;;7.80;55.60;;;;;;4855110;29;20038;-78
2022/04/18 03:21:13;;;;;;;15.52;10.50;;;7.70;55.60;;;;;;4853829;29;20049;-79
2022/04/18 03:23:39;;;;;;;16.38;11.15;;;7.70;55.80;;;;;;4862752;29;20120;-78
2022/04/18 03:26:06;;;;;;;18.27;11.43;;;7.70;55.90;;;;;;4852959;29;20049;-79
2022/04/18 03:28:34;;;;;;;18.35;11.68;;;7.70;55.90;;;;;;4855043;29;20109;-78
2022/04/18 03:31:00;;;;;;;19.65;12.02;;;7.70;55.70;;;;;;4862913;29;20785;-78
2022/04/18 03:33:25;;;;;;;17.90;12.18;;;7.60;55.80;;;;;;4849583;29;20053;-77
2022/04/18 03:41:20;;;;;;;15.50;10.63;;;7.50;56.00;;;;;;4854187;29;20045;-78
2022/04/18 03:43:45;;;;;;;15.82;10.27;;;7.50;55.90;;;;;;4875395;29;20559;-78
2022/04/18 03:46:11;;;;;;;16.73;11.10;;;7.50;56.20;;;;;;4842454;29;20555;-79
2022/04/18 03:48:37;;;;;;;16.83;10.73;;;7.40;56.20;;;;;;4854761;29;20200;-78
2022/04/18 03:51:02;;;;;;;18.70;11.00;;;7.40;56.10;;;;;;4857582;29;20048;-78
2022/04/18 03:53:28;;;;;;;15.65;10.65;;;7.50;56.20;;;;;;4857717;29;20097;-78
2022/04/18 03:55:53;;;;;;;14.48;10.15;;;7.40;56.10;;;;;;4854593;29;20101;-78
2022/04/18 03:58:19;;;;;;;17.67;11.70;;;7.40;56.40;;;;;;4857202;29;20076;-78
2022/04/18 04:00:45;;;;;;;17.40;11.00;;;7.40;56.40;;;;;;4857354;29;20716;-78
2022/04/18 04:03:11;;;;;;;15.95;10.20;;;7.30;56.40;;;;;;4842587;29;20516;-78
2022/04/18 04:05:40;;;;;;;16.08;9.45;;;7.30;56.70;;;;;;4871811;29;20041;-78
2022/04/18 04:08:06;;;;;;;17.05;10.60;;;7.30;56.70;;;;;;4857158;29;20045;-77
2022/04/18 04:10:32;;;;;;;16.95;11.32;;;7.20;56.80;;;;;;4857701;29;20430;-78
2022/04/18 04:12:58;;;;;;;19.50;12.02;;;7.20;56.80;;;;;;4854969;29;20053;-78
2022/04/18 04:15:24;;;;;;;17.45;10.90;;;7.20;56.90;;;;;;4858145;29;20049;-79
2022/04/18 04:17:50;;;;;;;18.35;11.15;;;7.20;57.20;;;;;;4855984;29;20041;-78
2022/04/18 04:20:16;;;;;;;19.90;11.50;;;7.20;57.10;;;;;;4874568;29;20061;-78
2022/04/18 04:22:48;;;;;;;18.15;11.25;;;7.20;57.30;;;;;;4855513;29;20037;-78
2022/04/18 04:25:15;;;;;;;20.02;11.93;;;7.10;57.20;;;;;;4857904;29;20156;-78
2022/04/18 04:27:42;;;;;;;17.05;10.68;;;7.10;57.50;;;;;;4854611;29;20045;-79
2022/04/18 04:30:08;;;;;;;16.83;10.88;;;7.10;57.50;;;;;;4872605;29;20552;-79
2022/04/18 04:32:34;;;;;;;20.42;11.70;;;7.10;57.60;;;;;;4842349;29;20037;-79
2022/04/18 04:35:00;;;;;;;17.17;10.57;;;7.10;58.10;;;;;;4873459;29;20124;-79
2022/04/18 04:37:26;;;;;;;16.85;10.13;;;7.10;57.80;;;;;;4856739;29;20116;-78
2022/04/18 04:39:51;;;;;;;15.90;10.25;;;7.00;58.80;;;;;;4873673;29;20048;-79
2022/04/18 04:42:18;;;;;;;18.00;11.13;;;7.00;57.90;;;;;;4871973;29;20523;-79
2022/04/18 04:44:45;;;;;;;16.60;10.95;;;7.00;57.90;;;;;;4858012;29;20049;-78
2022/04/18 04:47:11;;;;;;;18.92;11.43;;;7.00;58.10;;;;;;4856032;29;20049;-78
2022/04/18 04:49:37;;;;;;;17.88;11.70;;;7.00;58.00;;;;;;4855053;29;20051;-78
2022/04/18 04:52:04;;;;;;;20.13;12.32;;;7.00;57.90;;;;;;4858641;29;20096;-78
2022/04/18 04:54:29;;;;;;;23.30;12.57;;;7.00;58.10;;;;;;4861097;29;20443;-78
2022/04/18 04:56:55;;;;;;;20.27;12.27;;;7.00;58.30;;;;;;4844859;29;20132;-78
2022/04/18 04:59:21;;;;;;;17.60;11.13;;;7.00;58.00;;;;;;4858808;29;20510;-78
2022/04/18 05:01:47;;;;;;;23.20;11.80;;;7.00;57.90;;;;;;4873996;29;20139;-78
2022/04/18 05:04:12;;;;;;;19.65;11.82;;;7.00;58.50;;;;;;4843197;29;20061;-78
2022/04/18 05:06:38;;;;;;;15.95;10.18;;;7.00;58.40;;;;;;4874086;29;20045;-77
2022/04/18 05:09:03;;;;;;;20.23;10.60;;;7.00;58.50;;;;;;4844117;29;20036;-80
2022/04/18 05:11:29;;;;;;;18.58;11.65;;;7.00;58.70;;;;;;4858356;29;20068;-78
2022/04/18 05:13:55;;;;;;;19.50;12.40;;;7.00;58.60;;;;;;4876089;29;20036;-79
2022/04/18 05:16:21;;;;;;;15.38;10.77;;;7.00;58.80;;;;;;4859803;29;20055;-78
2022/04/18 05:18:47;;;;;;;24.05;13.90;;;7.00;59.00;;;;;;4876009;29;20060;-78
2022/04/18 05:21:12;;;;;;;21.30;12.05;;;7.00;58.80;;;;;;4875145;29;20041;-79
2022/04/18 05:23:38;;;;;;;18.58;11.63;;;7.00;60.10;;;;;;4858965;29;20422;-78
2022/04/18 05:26:04;;;;;;;18.02;12.48;;;7.00;59.20;;;;;;4857030;29;20500;-78
2022/04/18 05:28:29;;;;;;;18.70;12.45;;;7.00;58.80;;;;;;4840920;29;20432;-79
2022/04/18 05:30:55;;;;;;;20.38;12.20;;;7.00;59.00;;;;;;4859009;29;20040;-78
2022/04/18 05:33:23;;;;;;;17.15;12.07;;;7.10;58.60;;;;;;4857966;29;20446;-79
2022/04/18 05:35:50;;;;;;;19.90;11.98;;;7.10;58.70;;;;;;4858370;29;20049;-79
2022/04/18 05:38:16;;;;;;;22.27;12.45;;;7.10;58.80;;;;;;4837434;29;20486;-79
2022/04/18 05:40:42;;;;;;;18.10;10.98;;;7.10;58.70;;;;;;4852302;29;20550;-79
2022/04/18 05:43:08;;;;;;;19.23;12.05;;;7.20;58.70;;;;;;4857888;29;20151;-79
2022/04/18 05:45:36;;;;;;;21.20;11.52;;;7.20;58.50;;;;;;4856860;29;20057;-79
2022/04/18 05:48:02;;;;;;;20.75;11.85;;;7.30;58.90;;;;;;4857194;29;20121;-79
2022/04/18 05:50:27;;;;;;;17.60;11.30;;;7.30;58.40;;;;;;4857037;29;20048;-79
2022/04/18 05:52:54;;;;;;;17.35;11.85;;;7.40;58.60;;;;;;4860673;29;20033;-78
2022/04/18 05:55:20;;;;;;;19.42;12.00;;;7.40;58.00;;;;;;4874873;29;20041;-79
2022/04/18 05:57:46;;;;;;;17.13;10.20;;;7.60;58.00;;;;;;4858172;29;20048;-78
2022/04/18 06:00:12;;;;;;;15.93;9.32;;;7.70;57.80;;;;;;4843828;29;20045;-79
2022/04/18 06:02:38;;;;;;;16.42;10.60;;;7.70;57.70;;;;;;4870460;29;20487;-78
2022/04/18 06:05:05;;;;;;;15.70;10.32;;;7.80;57.40;;;;;;4859638;29;20050;-78
2022/04/18 06:07:31;;;;;;;20.40;11.43;;;7.90;57.10;;;;;;4857479;29;20128;-78
2022/04/18 06:09:57;;;;;;;18.45;10.98;;;8.00;56.80;;;;;;4858826;29;20181;-78
2022/04/18 06:12:22;;;;;;;18.52;10.70;;;8.10;56.40;;;;;;4841271;29;20095;-79
2022/04/18 06:14:48;;;;;;;15.82;10.52;;;8.20;55.80;;;;;;4875942;29;20504;-78
2022/04/18 06:17:14;;;;;;;16.35;10.55;;;8.30;55.70;;;;;;4872619;29;20132;-78
2022/04/18 06:19:40;;;;;;;16.25;10.15;;;8.30;55.50;;;;;;4859962;29;20384;-78
2022/04/18 06:22:05;;;;;;;16.67;10.73;;;8.40;55.50;;;;;;4874088;29;20060;-78
2022/04/18 06:24:31;;;;;;;17.75;9.73;;;8.40;55.90;;;;;;4859544;29;20502;-78
2022/04/18 06:26:57;;;;;;;17.83;11.15;;;8.50;56.00;;;;;;4875293;29;20048;-78
2022/04/18 06:29:22;;;;;;;15.60;10.65;;;8.50;56.00;;;;;;4875137;29;20045;-79
2022/04/18 06:31:49;;;;;;;19.05;10.68;;;8.60;56.10;;;;;;4859259;29;20037;-77
2022/04/18 06:34:16;;;;;;;14.45;9.80;;;8.70;55.20;;;;;;4873494;29;20037;-78
2022/04/18 06:36:42;;;;;;;18.02;10.80;;;8.70;55.10;;;;;;4857750;29;20382;-78
2022/04/18 06:39:08;;;;;;;17.67;11.60;;;8.80;55.10;;;;;;4857934;29;20491;-78
2022/04/18 06:41:33;;;;;;;16.90;10.20;;;8.80;54.90;;;;;;4838849;29;20042;-78
2022/04/18 06:43:59;;;;;;;18.08;10.95;;;8.90;54.80;;;;;;4855234;29;20045;-78
2022/04/18 06:46:25;;;;;;;18.90;10.80;;;8.90;55.00;;;;;;4855335;29;20097;-78
2022/04/18 06:48:50;;;;;;;17.83;10.30;;;9.00;55.00;;;;;;4854438;29;20152;-77
2022/04/18 06:51:16;;;;;;;17.05;11.25;;;9.00;55.00;;;;;;4868584;29;20041;-79
2022/04/18 06:53:42;;;;;;;14.88;9.63;;;9.10;55.00;;;;;;4869971;29;20037;-78
2022/04/18 06:58:51;;;;;;;14.80;10.30;;;9.20;55.40;;;;;;4845181;29;20133;-78
2022/04/18 07:01:17;;;;;;;17.77;9.57;;;9.30;55.20;;;;;;4866411;29;20582;-79
2022/04/18 07:03:42;;;;;;;15.45;10.15;;;9.40;55.00;;;;;;4833458;29;20073;-78
2022/04/18 07:06:08;;;;;;;14.80;10.13;;;9.50;55.10;;;;;;4850416;29;20381;-79
2022/04/18 07:08:34;;;;;;;17.65;10.32;;;9.60;55.10;;;;;;4865957;29;20073;-78
2022/04/18 07:10:59;;;;;;;17.10;10.32;;;9.60;55.20;;;;;;4852086;29;20066;-79
2022/04/18 07:13:25;;;;;;;16.98;10.55;;;9.70;55.30;;;;;;4838111;29;20038;-79
2022/04/18 07:15:52;;;;;;;17.55;9.88;;;9.80;55.10;;;;;;4853917;29;20404;-78
2022/04/18 07:18:18;;;;;;;15.27;9.80;;;9.90;55.20;;;;;;4853505;29;20555;-79
2022/04/18 07:20:44;;;;;;;16.08;10.02;;;10.00;54.90;;;;;;4837674;29;20033;-79
2022/04/18 07:23:09;;;;;;;13.68;8.68;;;10.10;54.90;;;;;;4849046;29;20050;-78
2022/04/18 07:25:35;;;;;;;13.35;9.10;;;10.10;54.50;;;;;;4867930;29;20527;-78
2022/04/18 07:28:01;;;;;;;14.95;9.10;;;10.30;54.70;;;;;;4853207;29;20041;-79
2022/04/18 07:30:30;;;;;;;16.95;9.63;;;10.30;54.50;;;;;;4865932;29;20049;-78
2022/04/18 07:32:55;;;;;;;14.00;8.82;;;10.40;54.30;;;;;;4868984;29;20459;-78
2022/04/18 07:35:21;;;;;;;13.75;7.82;;;10.50;54.30;;;;;;4868890;29;20176;-79
2022/04/18 07:40:31;;;;;;;11.43;7.72;;;10.70;53.50;;;;;;4855964;29;20067;-78
2022/04/18 07:42:56;;;;;;;12.05;7.80;;;10.80;53.50;;;;;;4868953;29;20386;-78
2022/04/18 07:45:22;;;;;;;11.98;6.57;;;10.90;54.40;;;;;;4835153;29;20497;-80
2022/04/18 07:47:51;;;;;;;13.90;7.75;;;11.00;53.30;;;;;;4842517;29;20446;-78
2022/04/18 07:50:17;;;;;;;12.85;7.40;;;11.20;52.90;;;;;;4855323;29;20049;-78
2022/04/18 07:52:43;;;;;;;10.55;6.82;;;11.30;52.10;;;;;;4836518;29;20053;-78
2022/04/18 07:55:08;;;;;;;11.40;6.53;;;11.40;52.30;;;;;;4868337;29;20392;-79
2022/04/18 07:57:34;;;;;;;10.20;6.10;;;11.50;51.80;;;;;;4853915;29;20037;-78
2022/04/18 08:00:00;;;;;;;10.50;6.78;;;11.60;50.60;;;;;;4835490;29;20105;-79
2022/04/18 08:02:26;;;;;;;9.80;6.43;;;11.70;50.60;;;;;;4850339;29;20061;-78
2022/04/18 08:04:51;;;;;;;9.98;6.78;;;11.80;50.20;;;;;;4837870;29;20085;-79
2022/04/18 08:07:17;;;;;;;11.27;6.70;;;11.90;49.90;;;;;;4831560;29;20041;-78
2022/04/18 08:09:43;;;;;;;10.73;7.03;;;12.00;50.00;;;;;;4854640;29;20052;-78
2022/04/18 08:12:12;;;;;;;11.73;7.80;;;12.10;50.30;;;;;;4855026;29;20464;-78
2022/04/18 08:14:38;;;;;;;14.18;7.40;;;12.10;50.90;;;;;;4865133;29;20993;-77
2022/04/18 08:17:04;;;;;;;11.10;7.00;;;12.20;50.60;;;;;;4850503;29;20744;-78
2022/04/18 08:19:29;;;;;;;10.85;7.22;;;12.30;51.10;;;;;;4869340;29;21440;-78
2022/04/18 08:21:55;;;;;;;13.63;8.02;;;12.40;50.00;;;;;;4853236;29;20053;-78
2022/04/18 08:24:24;;;;;;;16.52;7.72;;;12.50;50.00;;;;;;4856333;29;20124;-78
2022/04/18 08:26:49;;;;;;;9.75;6.93;;;12.60;50.10;;;;;;4857431;29;20045;-78
2022/04/18 08:29:16;;;;;;;10.48;7.28;;;12.70;51.10;;;;;;4855201;29;20042;-78
2022/04/18 08:31:42;;;;;;;12.25;6.50;;;12.80;49.90;;;;;;4871916;29;20049;-77
2022/04/18 08:34:07;;;;;;;9.40;6.30;;;12.90;50.20;;;;;;4871820;29;20376;-78
2022/04/18 08:36:33;;;;;;;11.45;7.63;;;13.00;49.70;;;;;;4853072;29;20045;-78
2022/04/18 08:38:59;;;;;;;9.80;6.05;;;13.10;50.00;;;;;;4838427;29;20101;-77
2022/04/18 08:41:33;;;;;;;10.57;6.85;;;13.20;50.70;;;;;;4872795;29;20041;-77
2022/04/18 08:44:00;;;;;;;10.40;6.93;;;13.30;50.40;;;;;;4855940;29;20046;-78
2022/04/18 08:46:26;;;;;;;11.98;6.88;;;13.50;50.30;;;;;;4873223;29;20041;-78
2022/04/18 08:54:23;;;;;;;10.18;6.60;;;13.80;49.30;;;;;;4871669;29;20040;-78
2022/04/18 08:56:50;;;;;;;10.35;6.40;;;13.90;49.30;;;;;;4844759;29;20045;-79
2022/04/18 08:59:16;;;;;;;9.40;6.18;;;14.00;47.80;;;;;;4859640;29;20091;-78
2022/04/18 09:01:50;;;;;;;10.75;7.28;;;14.10;48.40;;;;;;4842108;29;20073;-78
2022/04/18 09:04:20;;;;;;;10.20;7.07;;;14.20;48.20;;;;;;4857893;29;20080;-78
2022/04/18 09:06:45;;;;;;;11.18;6.95;;;14.30;48.20;;;;;;4842672;29;20160;-78
2022/04/18 09:09:11;;;;;;;10.27;5.85;;;14.40;48.00;;;;;;4843036;29;20033;-78
2022/04/18 09:11:37;;;;;;;10.45;5.88;;;14.50;47.60;;;;;;4860909;29;20045;-79
2022/04/18 09:14:04;;;;;;;7.85;5.20;;;14.60;47.50;;;;;;4859830;29;20041;-78
2022/04/18 09:16:31;;;;;;;8.30;4.90;;;14.70;47.20;;;;;;4861321;29;20045;-80
2022/04/18 09:19:10;;;;;;;8.98;5.53;;;14.80;47.00;;;;;;4859862;29;20052;-79
2022/04/18 09:21:42;;;;;;;8.95;5.47;;;15.00;46.50;;;;;;4855437;29;20502;-79
2022/04/18 09:24:21;;;;;;;;;;;15.00;46.80;;;;;;4860737;29;20045;-78
2022/04/18 09:26:46;;;;;;;9.68;4.70;;;15.10;45.90;;;;;;4852513;29;19943;-79
2022/04/18 09:29:12;;;;;;;7.55;4.95;;;15.20;46.50;;;;;;4843657;29;20132;-79
2022/04/18 09:31:40;;;;;;;9.52;5.25;;;15.40;46.00;;;;;;4872973;29;20080;-79
2022/04/18 09:34:05;;;;;;;7.30;4.80;;;15.50;46.20;;;;;;4871484;29;21838;-79
2022/04/18 09:36:31;;;;;;;5.53;3.78;;;15.60;45.50;;;;;;4872657;29;20097;-80
2022/04/18 09:38:57;;;;;;;7.50;3.92;;;15.80;45.30;;;;;;4844983;29;20037;-79
2022/04/18 09:41:28;;;;;;;7.22;4.32;;;15.90;44.40;;;;;;4856717;29;20045;-81
2022/04/18 09:43:55;;;;;;;6.43;4.05;;;16.00;44.20;;;;;;4874397;29;20100;-79
2022/04/18 09:46:22;;;;;;;6.82;3.78;;;16.00;44.60;;;;;;4844941;29;20045;-79
2022/04/18 09:48:49;;;;;;;7.85;4.53;;;16.20;43.80;;;;;;4859149;29;20048;-79
2022/04/18 09:51:24;;;;;;;9.30;5.03;;;16.30;44.20;;;;;;4869781;29;20044;-79
2022/04/18 09:53:52;;;;;;;7.30;4.35;;;16.30;44.10;;;;;;4844332;29;20448;-80
2022/04/18 09:56:21;;;;;;;7.40;4.22;;;16.40;43.20;;;;;;4855714;29;20529;-79
2022/04/18 09:58:47;;;;;;;7.63;3.88;;;16.60;41.50;;;;;;4858654;29;20037;-79
2022/04/18 10:01:13;;;;;;;7.38;4.80;;;16.60;42.20;;;;;;4869650;29;20037;-81
2022/04/18 10:03:41;;;;;;;5.90;3.72;;;16.70;41.80;;;;;;4845454;29;20048;-79
2022/04/18 10:06:07;;;;;;;5.47;3.65;;;16.70;41.30;;;;;;4856162;29;20033;-78
2022/04/18 10:08:35;;;;;;;8.82;4.10;;;16.80;42.40;;;;;;4853325;29;20048;-79
2022/04/18 10:11:02;;;;;;;5.97;3.40;;;16.90;42.20;;;;;;4857254;29;20176;-79
2022/04/18 10:13:29;;;;;;;5.35;3.08;;;17.10;41.10;;;;;;4865662;29;20045;-79
2022/04/18 10:15:58;;;;;;;8.27;3.65;;;17.20;41.10;;;;;;4875916;29;20069;-80
2022/04/18 10:18:24;;;;;;;6.07;3.28;;;17.30;40.70;;;;;;4839859;29;20162;-80
2022/04/18 10:21:16;;;;;;;5.68;3.42;;;17.30;40.40;;;;;;4857601;29;20041;-78
2022/04/18 10:24:00;;;;;;;8.10;3.42;;;17.40;39.50;;;;;;4873606;29;20725;-79
2022/04/18 10:26:48;;;;;;;13.30;3.30;;;17.50;39.80;;;;;;4857877;29;20053;-80
2022/04/18 10:29:20;;;;;;;4.93;2.95;;;17.60;38.20;;;;;;4857615;29;20045;-80
2022/04/18 10:31:48;;;;;;;6.60;2.55;;;17.70;38.30;;;;;;4858777;29;20429;-79
2022/04/18 10:34:14;;;;;;;6.38;3.15;;;17.80;37.90;;;;;;4841488;29;20052;-79
2022/04/18 10:36:51;;;;;;;6.93;2.92;;;17.90;38.50;;;;;;4856438;29;20041;-80
2022/04/18 10:39:17;;;;;;;4.90;2.70;;;18.00;37.30;;;;;;4857156;29;20531;-79
2022/04/18 10:41:44;;;;;;;6.20;2.58;;;18.10;37.50;;;;;;4855917;29;20199;-79
2022/04/18 10:44:12;;;;;;;4.28;2.80;;;18.20;37.20;;;;;;4869331;29;20197;-78
2022/04/18 10:46:40;;;;;;;29.65;3.42;;;18.30;36.50;;;;;;4870855;29;20044;-79
2022/04/18 10:49:19;;;;;;;2.88;1.70;;;18.40;36.30;;;;;;4840500;29;20149;-79
2022/04/18 10:51:53;;;;;;;3.65;1.90;;;18.40;35.20;;;;;;4861146;29;20161;-79
2022/04/18 10:54:23;;;;;;;3.88;1.80;;;18.50;35.70;;;;;;4852318;29;20092;-79
2022/04/18 10:56:59;;;;;;;2.75;1.63;;;18.60;35.40;;;;;;4840963;29;20045;-80
2022/04/18 10:59:29;;;;;;;3.63;2.00;;;18.80;33.80;;;;;;4853594;29;20045;-81
2022/04/18 11:01:56;;;;;;;3.60;2.00;;;18.90;34.50;;;;;;4868912;29;20041;-79
2022/04/18 11:04:27;;;;;;;5.40;2.95;;;19.00;34.50;;;;;;4877587;29;20068;-78
2022/04/18 11:07:07;;;;;;;5.90;2.65;;;19.00;34.40;;;;;;4861803;29;20052;-80
2022/04/18 11:09:45;;;;;;;3.55;2.13;;;19.00;34.10;;;;;;4856976;29;20098;-79
2022/04/18 11:12:12;;;;;;;3.35;1.92;;;18.90;34.50;;;;;;4857806;29;20041;-79
2022/04/18 11:14:38;;;;;;;4.53;1.90;;;19.00;34.40;;;;;;4873834;29;20047;-79
2022/04/18 11:17:06;;;;;;;3.30;2.13;;;19.10;34.40;;;;;;4855803;29;20164;-78
2022/04/18 11:19:36;;;;;;;4.30;2.08;;;19.20;34.40;;;;;;4857544;29;21675;-79
2022/04/18 11:22:07;;;;;;;5.32;2.75;;;19.30;34.60;;;;;;4838675;29;20590;-79
2022/04/18 11:24:44;;;;;;;3.00;1.90;;;19.50;35.40;;;;;;4866598;29;20120;-80
2022/04/18 11:27:15;;;;;;;3.80;1.60;;;19.70;34.80;;;;;;4868180;29;20041;-79
2022/04/18 11:29:44;;;;;;;10.45;2.00;;;19.80;33.80;;;;;;4853795;29;20116;-79
2022/04/18 11:32:14;;;;;;;5.82;2.22;;;19.80;33.60;;;;;;4852041;29;20048;-79
2022/04/18 11:34:47;;;;;;;10.18;2.20;;;19.90;32.50;;;;;;4847723;29;20416;-78
2022/04/18 11:37:40;;;;;;;2.83;1.85;;;20.00;33.00;;;;;;4839015;29;20045;-79
2022/04/18 11:40:08;;;;;;;4.40;1.75;;;20.10;31.60;;;;;;4869848;29;20057;-79
2022/04/18 11:42:35;;;;;;;3.97;2.50;;;20.00;32.10;;;;;;4855320;29;20065;-79
2022/04/18 11:45:06;;;;;;;4.22;2.60;;;19.90;31.30;;;;;;4857264;29;20049;-78
2022/04/18 11:47:41;;;;;;;4.82;2.25;;;19.90;31.90;;;;;;4867619;29;20954;-76
2022/04/18 11:50:09;;;;;;;3.30;2.17;;;19.90;31.30;;;;;;4854667;29;20044;-76
2022/04/18 11:52:39;;;;;;;3.30;2.20;;;19.90;31.50;;;;;;4869797;29;20080;-78
2022/04/18 11:55:05;;;;;;;5.85;2.25;;;19.80;31.80;;;;;;4853863;29;20053;-80
2022/04/18 11:57:34;;;;;;;3.95;1.98;;;19.90;32.10;;;;;;4856463;29;20071;-77
2022/04/18 11:59:59;;;;;;;4.50;2.53;;;20.00;32.20;;;;;;4856330;29;20053;-79
2022/04/18 12:07:57;;;;;;;3.80;2.10;;;20.20;31.20;;;;;;4863805;29;20547;-79
2022/04/18 12:10:25;;;;;;;4.60;2.78;;;20.30;31.80;;;;;;4858108;29;20040;-78
2022/04/18 12:12:52;;;;;;;4.45;2.58;;;20.20;32.00;;;;;;4873452;29;20064;-76
2022/04/18 12:15:22;;;;;;;5.35;2.83;;;20.30;32.40;;;;;;4859043;29;20426;-80
2022/04/18 12:17:48;;;;;;;4.35;2.88;;;20.50;32.90;;;;;;4857727;29;20148;-78
2022/04/18 12:20:29;;;;;;;4.68;2.50;;;20.50;32.30;;;;;;4859894;29;20650;-79
2022/04/18 12:22:59;;;;;;;3.47;2.63;;;20.60;31.10;;;;;;4874117;29;20194;-79
2022/04/18 12:25:27;;;;;;;4.05;2.08;;;20.60;31.70;;;;;;4859406;29;20490;-78
2022/04/18 12:27:54;;;;;;;3.47;2.17;;;20.80;32.30;;;;;;4844324;29;20502;-79
2022/04/18 12:30:21;;;;;;;3.53;2.50;;;21.10;31.90;;;;;;4872847;29;20130;-78
2022/04/18 12:32:47;;;;;;;4.20;2.28;;;21.40;31.00;;;;;;4843345;29;20417;-79
2022/04/18 12:35:42;;;;;;;4.82;2.53;;;21.40;31.30;;;;;;4858096;29;20049;-78
2022/04/18 12:38:10;;;;;;;4.78;2.40;;;21.50;30.00;;;;;;4871970;29;20530;-77
2022/04/18 12:40:44;;;;;;;3.90;2.45;;;21.40;30.40;;;;;;4852044;29;20033;-76
2022/04/18 12:43:15;;;;;;;4.97;2.45;;;21.40;30.60;;;;;;4871713;29;20063;-77
2022/04/18 12:45:52;;;;;;;3.17;2.30;;;21.40;30.50;;;;;;4859061;29;20123;-77
2022/04/18 12:48:31;;;;;;;4.25;2.50;;;21.20;30.80;;;;;;4858673;29;20591;-76
2022/04/18 12:50:59;;;;;;;3.42;2.35;;;21.10;29.90;;;;;;4856727;29;20614;-79
2022/04/18 12:53:52;;;;;;;3.88;2.28;;;21.00;30.00;;;;;;4871321;29;20743;-79
2022/04/18 12:56:23;;;;;;;4.70;2.53;;;21.00;29.40;;;;;;4870458;29;20180;-77
2022/04/18 12:59:00;;;;;;;5.25;2.40;;;21.00;30.10;;;;;;4838513;29;20136;-77
2022/04/18 13:01:32;;;;;;;4.38;2.28;;;21.20;30.30;;;;;;4857015;29;20099;-77
2022/04/18 13:03:59;;;;;;;2.70;2.13;;;21.30;30.00;;;;;;4859401;29;20048;-81
2022/04/18 13:06:26;;;;;;;3.95;2.25;;;21.40;30.00;;;;;;4861675;29;20045;-77
2022/04/18 13:08:58;;;;;;;4.38;2.92;;;21.50;30.20;;;;;;4856332;29;20090;-79
2022/04/18 13:11:35;;;;;;;4.03;2.40;;;21.60;29.30;;;;;;4850139;29;20201;-77
2022/04/18 13:14:03;;;;;;;3.78;2.40;;;21.80;30.10;;;;;;4857755;29;20037;-79
2022/04/18 13:16:28;;;;;;;3.40;2.30;;;22.20;29.40;;;;;;4842799;29;20387;-77